sensor_id;sensor_type;location;lat;lon;timestamp;P1;durP1;ratioP1;P2;durP2;ratioP2
35909;SDS011;22004;49.120;-0.200;2023-08-24T00:00:49;11.63;;;3.50;;
35909;SDS011;22004;49.120;-0.200;2023-08-24T00:03:14;9.60;;;3.17;;
35909;SDS011;22004;49.120;-0.200;2023-08-24T00:05:40;7.53;;;3.35;;
35909;SDS011;22004;49.120;-0.200;2023-08-24T00:08:09;6.07;;;3.28;;
35909;SDS011;22004;49.120;-0.200;2023-08-24T00:10:35;11.57;;;3.35;;
35909;SDS011;22004;49.120;-0.200;2023-08-24T00:13:02;5.25;;;2.70;;
35909;SDS011;22004;49.120;-0.200;2023-08-24T00:15:28;6.22;;;3.15;;
35909;SDS011;22004;49.120;-0.200;2023-08-24T00:17:53;6.28;;;3.40;;
35909;SDS011;22004;49.120;-0.200;2023-08-24T00:20:19;8.90;;;3.53;;
35909;SDS011;22004;49.120;-0.200;2023-08-24T00:22:45;8.35;;;3.78;;
35909;SDS011;22004;49.120;-0.200;2023-08-24T00:25:11;6.63;;;2.90;;
35909;SDS011;22004;49.120;-0.200;2023-08-24T00:27:36;8.85;;;3.40;;
35909;SDS011;22004;49.120;-0.200;2023-08-24T00:30:03;6.38;;;3.00;;
35909;SDS011;22004;49.120;-0.200;2023-08-24T00:32:29;7.45;;;3.13;;
35909;SDS011;22004;49.120;-0.200;2023-08-24T00:34:55;5.28;;;2.90;;
35909;SDS011;22004;49.120;-0.200;2023-08-24T00:37:21;8.73;;;3.80;;
35909;SDS011;22004;49.120;-0.200;2023-08-24T00:39:46;7.97;;;3.58;;
35909;SDS011;22004;49.120;-0.200;2023-08-24T00:42:11;5.88;;;2.80;;
35909;SDS011;22004;49.120;-0.200;2023-08-24T00:44:40;5.32;;;3.03;;
35909;SDS011;22004;49.120;-0.200;2023-08-24T00:47:06;5.75;;;3.00;;
35909;SDS011;22004;49.120;-0.200;2023-08-24T00:49:34;7.63;;;3.13;;
35909;SDS011;22004;49.120;-0.200;2023-08-24T00:51:59;8.07;;;3.60;;
35909;SDS011;22004;49.120;-0.200;2023-08-24T00:54:25;6.25;;;3.03;;
35909;SDS011;22004;49.120;-0.200;2023-08-24T00:56:50;6.70;;;2.72;;
35909;SDS011;22004;49.120;-0.200;2023-08-24T00:59:16;8.45;;;3.38;;
35909;SDS011;22004;49.120;-0.200;2023-08-24T01:01:41;7.90;;;3.63;;
35909;SDS011;22004;49.120;-0.200;2023-08-24T01:04:10;5.70;;;3.20;;
35909;SDS011;22004;49.120;-0.200;2023-08-24T01:06:36;6.57;;;3.33;;
35909;SDS011;22004;49.120;-0.200;2023-08-24T01:09:02;8.23;;;3.30;;
35909;SDS011;22004;49.120;-0.200;2023-08-24T01:11:41;7.38;;;3.47;;
35909;SDS011;22004;49.120;-0.200;2023-08-24T01:16:48;7.57;;;3.10;;
35909;SDS011;22004;49.120;-0.200;2023-08-24T01:19:37;8.48;;;3.35;;
35909;SDS011;22004;49.120;-0.200;2023-08-24T01:22:40;8.25;;;3.40;;
35909;SDS011;22004;49.120;-0.200;2023-08-24T01:25:12;10.07;;;3.45;;
35909;SDS011;22004;49.120;-0.200;2023-08-24T01:27:41;8.85;;;3.90;;
35909;SDS011;22004;49.120;-0.200;2023-08-24T01:30:08;5.95;;;2.95;;
35909;SDS011;22004;49.120;-0.200;2023-08-24T01:32:34;6.80;;;3.50;;
35909;SDS011;22004;49.120;-0.200;2023-08-24T01:35:02;8.13;;;3.33;;
35909;SDS011;22004;49.120;-0.200;2023-08-24T01:37:28;7.13;;;3.03;;
35909;SDS011;22004;49.120;-0.200;2023-08-24T01:39:58;5.95;;;2.80;;
35909;SDS011;22004;49.120;-0.200;2023-08-24T01:42:35;5.75;;;2.90;;
35909;SDS011;22004;49.120;-0.200;2023-08-24T01:45:07;7.43;;;3.17;;
35909;SDS011;22004;49.120;-0.200;2023-08-24T01:47:35;5.90;;;3.00;;
35909;SDS011;22004;49.120;-0.200;2023-08-24T01:50:03;6.85;;;3.22;;
35909;SDS011;22004;49.120;-0.200;2023-08-24T01:52:29;5.97;;;3.00;;
35909;SDS011;22004;49.120;-0.200;2023-08-24T01:54:55;5.38;;;3.00;;
35909;SDS011;22004;49.120;-0.200;2023-08-24T01:57:20;7.30;;;2.97;;
35909;SDS011;22004;49.120;-0.200;2023-08-24T01:59:46;6.32;;;3.33;;
35909;SDS011;22004;49.120;-0.200;2023-08-24T02:02:11;8.73;;;3.47;;
35909;SDS011;22004;49.120;-0.200;2023-08-24T02:04:36;5.10;;;2.92;;
35909;SDS011;22004;49.120;-0.200;2023-08-24T02:07:02;7.32;;;2.95;;
35909;SDS011;22004;49.120;-0.200;2023-08-24T02:09:27;4.78;;;2.83;;
35909;SDS011;22004;49.120;-0.200;2023-08-24T02:11:52;8.77;;;3.78;;
35909;SDS011;22004;49.120;-0.200;2023-08-24T02:14:18;5.65;;;3.53;;
35909;SDS011;22004;49.120;-0.200;2023-08-24T02:16:43;7.28;;;3.30;;
35909;SDS011;22004;49.120;-0.200;2023-08-24T02:19:08;7.25;;;3.67;;
35909;SDS011;22004;49.120;-0.200;2023-08-24T02:21:37;5.88;;;3.10;;
35909;SDS011;22004;49.120;-0.200;2023-08-24T02:24:03;10.50;;;3.83;;
35909;SDS011;22004;49.120;-0.200;2023-08-24T02:26:29;5.70;;;3.20;;
35909;SDS011;22004;49.120;-0.200;2023-08-24T02:28:54;8.43;;;3.08;;
35909;SDS011;22004;49.120;-0.200;2023-08-24T02:31:20;6.10;;;3.70;;
35909;SDS011;22004;49.120;-0.200;2023-08-24T02:33:45;8.90;;;3.70;;
35909;SDS011;22004;49.120;-0.200;2023-08-24T02:36:10;7.28;;;3.28;;
35909;SDS011;22004;49.120;-0.200;2023-08-24T02:38:36;6.68;;;3.45;;
35909;SDS011;22004;49.120;-0.200;2023-08-24T02:41:04;9.88;;;3.25;;
35909;SDS011;22004;49.120;-0.200;2023-08-24T02:43:31;7.25;;;3.67;;
35909;SDS011;22004;49.120;-0.200;2023-08-24T02:46:01;7.40;;;3.70;;
35909;SDS011;22004;49.120;-0.200;2023-08-24T02:48:28;6.03;;;3.65;;
35909;SDS011;22004;49.120;-0.200;2023-08-24T02:50:53;6.63;;;3.58;;
35909;SDS011;22004;49.120;-0.200;2023-08-24T02:53:19;11.07;;;3.60;;
35909;SDS011;22004;49.120;-0.200;2023-08-24T02:55:44;7.28;;;3.50;;
35909;SDS011;22004;49.120;-0.200;2023-08-24T02:58:09;7.03;;;3.67;;
35909;SDS011;22004;49.120;-0.200;2023-08-24T03:00:37;8.32;;;3.50;;
35909;SDS011;22004;49.120;-0.200;2023-08-24T03:03:03;6.72;;;3.30;;
35909;SDS011;22004;49.120;-0.200;2023-08-24T03:05:30;7.60;;;3.60;;
35909;SDS011;22004;49.120;-0.200;2023-08-24T03:07:57;12.32;;;4.05;;
35909;SDS011;22004;49.120;-0.200;2023-08-24T03:10:23;5.68;;;3.25;;
35909;SDS011;22004;49.120;-0.200;2023-08-24T03:12:48;5.68;;;3.60;;
35909;SDS011;22004;49.120;-0.200;2023-08-24T03:15:13;10.60;;;3.67;;
35909;SDS011;22004;49.120;-0.200;2023-08-24T03:17:38;7.43;;;3.40;;
35909;SDS011;22004;49.120;-0.200;2023-08-24T03:20:04;6.70;;;3.55;;
35909;SDS011;22004;49.120;-0.200;2023-08-24T03:22:30;7.28;;;3.50;;
35909;SDS011;22004;49.120;-0.200;2023-08-24T03:24:55;6.80;;;3.55;;
35909;SDS011;22004;49.120;-0.200;2023-08-24T03:27:21;7.50;;;3.55;;
35909;SDS011;22004;49.120;-0.200;2023-08-24T03:29:46;4.65;;;2.97;;
35909;SDS011;22004;49.120;-0.200;2023-08-24T03:32:11;6.03;;;2.85;;
35909;SDS011;22004;49.120;-0.200;2023-08-24T03:34:37;6.57;;;3.10;;
35909;SDS011;22004;49.120;-0.200;2023-08-24T03:37:02;6.05;;;3.22;;
35909;SDS011;22004;49.120;-0.200;2023-08-24T03:39:27;6.03;;;3.22;;
35909;SDS011;22004;49.120;-0.200;2023-08-24T03:41:53;6.20;;;3.00;;
35909;SDS011;22004;49.120;-0.200;2023-08-24T03:44:18;7.38;;;3.42;;
35909;SDS011;22004;49.120;-0.200;2023-08-24T03:46:44;5.22;;;3.53;;
35909;SDS011;22004;49.120;-0.200;2023-08-24T03:49:09;6.93;;;3.42;;
35909;SDS011;22004;49.120;-0.200;2023-08-24T03:51:34;6.63;;;3.53;;
35909;SDS011;22004;49.120;-0.200;2023-08-24T03:53:59;6.22;;;3.17;;
35909;SDS011;22004;49.120;-0.200;2023-08-24T03:56:25;7.35;;;3.38;;
35909;SDS011;22004;49.120;-0.200;2023-08-24T03:58:50;5.15;;;3.17;;
35909;SDS011;22004;49.120;-0.200;2023-08-24T04:01:16;6.20;;;3.40;;
35909;SDS011;22004;49.120;-0.200;2023-08-24T04:03:41;7.75;;;3.20;;
35909;SDS011;22004;49.120;-0.200;2023-08-24T04:06:06;5.65;;;3.28;;
35909;SDS011;22004;49.120;-0.200;2023-08-24T04:08:32;6.45;;;3.42;;
35909;SDS011;22004;49.120;-0.200;2023-08-24T04:10:58;5.65;;;3.00;;
35909;SDS011;22004;49.120;-0.200;2023-08-24T04:13:23;6.15;;;3.30;;
35909;SDS011;22004;49.120;-0.200;2023-08-24T04:15:48;6.60;;;3.53;;
35909;SDS011;22004;49.120;-0.200;2023-08-24T04:18:14;5.70;;;3.65;;
35909;SDS011;22004;49.120;-0.200;2023-08-24T04:20:39;7.18;;;4.10;;
35909;SDS011;22004;49.120;-0.200;2023-08-24T04:23:04;6.72;;;3.80;;
35909;SDS011;22004;49.120;-0.200;2023-08-24T04:25:30;11.48;;;3.92;;
35909;SDS011;22004;49.120;-0.200;2023-08-24T04:27:55;8.10;;;3.88;;
35909;SDS011;22004;49.120;-0.200;2023-08-24T04:30:21;9.52;;;4.05;;
35909;SDS011;22004;49.120;-0.200;2023-08-24T04:32:46;9.27;;;4.50;;
35909;SDS011;22004;49.120;-0.200;2023-08-24T04:35:12;11.13;;;5.07;;
35909;SDS011;22004;49.120;-0.200;2023-08-24T04:37:37;14.18;;;6.63;;
35909;SDS011;22004;49.120;-0.200;2023-08-24T04:40:03;18.88;;;8.95;;
35909;SDS011;22004;49.120;-0.200;2023-08-24T04:42:29;22.80;;;9.10;;
35909;SDS011;22004;49.120;-0.200;2023-08-24T04:44:55;23.50;;;9.65;;
35909;SDS011;22004;49.120;-0.200;2023-08-24T04:47:20;19.33;;;10.10;;
35909;SDS011;22004;49.120;-0.200;2023-08-24T04:49:45;19.70;;;8.30;;
35909;SDS011;22004;49.120;-0.200;2023-08-24T04:52:11;18.02;;;5.72;;
35909;SDS011;22004;49.120;-0.200;2023-08-24T04:54:36;13.23;;;6.05;;
35909;SDS011;22004;49.120;-0.200;2023-08-24T04:57:02;12.05;;;5.32;;
35909;SDS011;22004;49.120;-0.200;2023-08-24T04:59:27;9.35;;;5.07;;
35909;SDS011;22004;49.120;-0.200;2023-08-24T05:01:52;13.88;;;4.90;;
35909;SDS011;22004;49.120;-0.200;2023-08-24T05:04:18;16.23;;;6.68;;
35909;SDS011;22004;49.120;-0.200;2023-08-24T05:06:43;13.73;;;5.55;;
35909;SDS011;22004;49.120;-0.200;2023-08-24T05:09:09;22.80;;;5.50;;
35909;SDS011;22004;49.120;-0.200;2023-08-24T05:11:34;14.32;;;5.00;;
35909;SDS011;22004;49.120;-0.200;2023-08-24T05:13:59;22.00;;;4.63;;
35909;SDS011;22004;49.120;-0.200;2023-08-24T05:16:25;14.60;;;4.18;;
35909;SDS011;22004;49.120;-0.200;2023-08-24T05:18:50;18.13;;;4.68;;
35909;SDS011;22004;49.120;-0.200;2023-08-24T05:21:15;17.35;;;4.28;;
35909;SDS011;22004;49.120;-0.200;2023-08-24T05:23:41;15.88;;;3.80;;
35909;SDS011;22004;49.120;-0.200;2023-08-24T05:26:06;15.50;;;4.25;;
35909;SDS011;22004;49.120;-0.200;2023-08-24T05:28:31;14.88;;;5.13;;
35909;SDS011;22004;49.120;-0.200;2023-08-24T05:30:57;14.00;;;3.83;;
35909;SDS011;22004;49.120;-0.200;2023-08-24T05:33:23;19.25;;;3.70;;
35909;SDS011;22004;49.120;-0.200;2023-08-24T05:35:52;11.35;;;3.60;;
35909;SDS011;22004;49.120;-0.200;2023-08-24T05:38:18;18.27;;;4.80;;
35909;SDS011;22004;49.120;-0.200;2023-08-24T05:40:46;17.45;;;5.65;;
35909;SDS011;22004;49.120;-0.200;2023-08-24T05:43:12;14.80;;;4.78;;
35909;SDS011;22004;49.120;-0.200;2023-08-24T05:45:37;12.05;;;3.17;;
35909;SDS011;22004;49.120;-0.200;2023-08-24T05:48:05;13.77;;;3.50;;
35909;SDS011;22004;49.120;-0.200;2023-08-24T05:50:31;12.70;;;3.60;;
35909;SDS011;22004;49.120;-0.200;2023-08-24T05:52:56;8.88;;;3.67;;
35909;SDS011;22004;49.120;-0.200;2023-08-24T05:55:22;14.98;;;4.30;;
35909;SDS011;22004;49.120;-0.200;2023-08-24T05:57:47;11.80;;;4.60;;
35909;SDS011;22004;49.120;-0.200;2023-08-24T06:00:13;9.70;;;4.03;;
35909;SDS011;22004;49.120;-0.200;2023-08-24T06:02:39;11.48;;;3.67;;
35909;SDS011;22004;49.120;-0.200;2023-08-24T06:05:05;8.18;;;3.22;;
35909;SDS011;22004;49.120;-0.200;2023-08-24T06:07:31;9.25;;;3.15;;
35909;SDS011;22004;49.120;-0.200;2023-08-24T06:09:57;13.73;;;4.68;;
35909;SDS011;22004;49.120;-0.200;2023-08-24T06:12:23;16.30;;;3.60;;
35909;SDS011;22004;49.120;-0.200;2023-08-24T06:14:48;13.65;;;3.65;;
35909;SDS011;22004;49.120;-0.200;2023-08-24T06:17:13;13.82;;;3.55;;
35909;SDS011;22004;49.120;-0.200;2023-08-24T06:19:39;8.18;;;3.20;;
35909;SDS011;22004;49.120;-0.200;2023-08-24T06:22:04;8.95;;;3.13;;
35909;SDS011;22004;49.120;-0.200;2023-08-24T06:24:29;6.82;;;3.13;;
35909;SDS011;22004;49.120;-0.200;2023-08-24T06:26:55;5.85;;;2.95;;
35909;SDS011;22004;49.120;-0.200;2023-08-24T06:29:20;7.22;;;3.20;;
35909;SDS011;22004;49.120;-0.200;2023-08-24T06:31:45;11.70;;;4.40;;
35909;SDS011;22004;49.120;-0.200;2023-08-24T06:34:11;8.93;;;4.30;;
35909;SDS011;22004;49.120;-0.200;2023-08-24T06:36:36;11.55;;;3.40;;
35909;SDS011;22004;49.120;-0.200;2023-08-24T06:39:02;9.27;;;4.30;;
35909;SDS011;22004;49.120;-0.200;2023-08-24T06:41:32;11.45;;;3.90;;
35909;SDS011;22004;49.120;-0.200;2023-08-24T06:43:58;9.93;;;4.53;;
35909;SDS011;22004;49.120;-0.200;2023-08-24T06:46:24;11.75;;;3.85;;
35909;SDS011;22004;49.120;-0.200;2023-08-24T06:48:49;7.05;;;2.85;;
35909;SDS011;22004;49.120;-0.200;2023-08-24T06:51:14;10.05;;;3.50;;
35909;SDS011;22004;49.120;-0.200;2023-08-24T06:53:40;8.40;;;3.15;;
35909;SDS011;22004;49.120;-0.200;2023-08-24T06:56:07;12.10;;;3.45;;
35909;SDS011;22004;49.120;-0.200;2023-08-24T06:58:33;7.63;;;3.50;;
35909;SDS011;22004;49.120;-0.200;2023-08-24T07:00:59;9.15;;;3.45;;
35909;SDS011;22004;49.120;-0.200;2023-08-24T07:03:24;13.80;;;4.53;;
35909;SDS011;22004;49.120;-0.200;2023-08-24T07:05:49;15.10;;;4.18;;
35909;SDS011;22004;49.120;-0.200;2023-08-24T07:08:15;12.95;;;4.18;;
35909;SDS011;22004;49.120;-0.200;2023-08-24T07:10:40;13.05;;;4.57;;
35909;SDS011;22004;49.120;-0.200;2023-08-24T07:13:07;16.48;;;4.93;;
35909;SDS011;22004;49.120;-0.200;2023-08-24T07:15:34;9.23;;;4.00;;
35909;SDS011;22004;49.120;-0.200;2023-08-24T07:18:03;18.63;;;3.97;;
35909;SDS011;22004;49.120;-0.200;2023-08-24T07:20:30;20.75;;;4.88;;
35909;SDS011;22004;49.120;-0.200;2023-08-24T07:22:57;32.25;;;4.93;;
35909;SDS011;22004;49.120;-0.200;2023-08-24T07:25:22;46.92;;;4.85;;
35909;SDS011;22004;49.120;-0.200;2023-08-24T07:27:47;47.17;;;5.88;;
35909;SDS011;22004;49.120;-0.200;2023-08-24T07:30:13;20.67;;;4.78;;
35909;SDS011;22004;49.120;-0.200;2023-08-24T07:32:38;23.67;;;4.68;;
35909;SDS011;22004;49.120;-0.200;2023-08-24T07:35:04;27.63;;;5.25;;
35909;SDS011;22004;49.120;-0.200;2023-08-24T07:37:31;15.00;;;5.20;;
35909;SDS011;22004;49.120;-0.200;2023-08-24T07:39:57;24.50;;;4.50;;
35909;SDS011;22004;49.120;-0.200;2023-08-24T07:42:22;20.25;;;4.70;;
35909;SDS011;22004;49.120;-0.200;2023-08-24T07:44:48;35.50;;;5.88;;
35909;SDS011;22004;49.120;-0.200;2023-08-24T07:47:14;31.20;;;5.50;;
35909;SDS011;22004;49.120;-0.200;2023-08-24T07:49:39;35.08;;;6.22;;
35909;SDS011;22004;49.120;-0.200;2023-08-24T07:52:09;24.25;;;6.20;;
35909;SDS011;22004;49.120;-0.200;2023-08-24T07:54:36;48.70;;;6.97;;
35909;SDS011;22004;49.120;-0.200;2023-08-24T07:57:01;40.00;;;7.45;;
35909;SDS011;22004;49.120;-0.200;2023-08-24T07:59:27;29.77;;;7.05;;
35909;SDS011;22004;49.120;-0.200;2023-08-24T08:01:52;19.80;;;6.53;;
35909;SDS011;22004;49.120;-0.200;2023-08-24T08:04:17;23.60;;;7.07;;
35909;SDS011;22004;49.120;-0.200;2023-08-24T08:06:43;27.67;;;6.45;;
35909;SDS011;22004;49.120;-0.200;2023-08-24T08:09:08;19.00;;;7.47;;
35909;SDS011;22004;49.120;-0.200;2023-08-24T08:11:33;27.52;;;7.28;;
35909;SDS011;22004;49.120;-0.200;2023-08-24T08:13:59;23.38;;;7.55;;
35909;SDS011;22004;49.120;-0.200;2023-08-24T08:16:25;20.23;;;7.47;;
35909;SDS011;22004;49.120;-0.200;2023-08-24T08:18:50;25.17;;;7.72;;
35909;SDS011;22004;49.120;-0.200;2023-08-24T08:21:16;31.80;;;8.40;;
35909;SDS011;22004;49.120;-0.200;2023-08-24T08:23:45;29.55;;;9.15;;
35909;SDS011;22004;49.120;-0.200;2023-08-24T08:26:11;16.33;;;8.27;;
35909;SDS011;22004;49.120;-0.200;2023-08-24T08:28:38;20.23;;;8.02;;
35909;SDS011;22004;49.120;-0.200;2023-08-24T08:31:04;16.98;;;8.00;;
35909;SDS011;22004;49.120;-0.200;2023-08-24T08:33:29;14.80;;;6.90;;
35909;SDS011;22004;49.120;-0.200;2023-08-24T08:35:55;16.75;;;7.82;;
35909;SDS011;22004;49.120;-0.200;2023-08-24T08:38:21;20.85;;;8.00;;
35909;SDS011;22004;49.120;-0.200;2023-08-24T08:40:56;20.65;;;7.90;;
35909;SDS011;22004;49.120;-0.200;2023-08-24T08:43:27;19.77;;;7.72;;
35909;SDS011;22004;49.120;-0.200;2023-08-24T08:45:52;17.52;;;7.60;;
35909;SDS011;22004;49.120;-0.200;2023-08-24T08:48:20;24.30;;;8.10;;
35909;SDS011;22004;49.120;-0.200;2023-08-24T08:50:49;14.90;;;7.60;;
35909;SDS011;22004;49.120;-0.200;2023-08-24T08:53:15;18.15;;;6.80;;
35909;SDS011;22004;49.120;-0.200;2023-08-24T08:55:40;21.73;;;7.10;;
35909;SDS011;22004;49.120;-0.200;2023-08-24T08:58:06;16.85;;;7.47;;
35909;SDS011;22004;49.120;-0.200;2023-08-24T09:00:33;28.67;;;9.80;;
35909;SDS011;22004;49.120;-0.200;2023-08-24T09:02:58;15.77;;;8.18;;
35909;SDS011;22004;49.120;-0.200;2023-08-24T09:05:24;9.90;;;6.88;;
35909;SDS011;22004;49.120;-0.200;2023-08-24T09:07:51;13.32;;;6.18;;
35909;SDS011;22004;49.120;-0.200;2023-08-24T09:10:19;13.02;;;5.53;;
35909;SDS011;22004;49.120;-0.200;2023-08-24T09:12:45;9.88;;;5.50;;
35909;SDS011;22004;49.120;-0.200;2023-08-24T09:15:10;13.35;;;6.45;;
35909;SDS011;22004;49.120;-0.200;2023-08-24T09:17:36;10.07;;;6.60;;
35909;SDS011;22004;49.120;-0.200;2023-08-24T09:20:07;17.40;;;7.25;;
35909;SDS011;22004;49.120;-0.200;2023-08-24T09:22:36;11.63;;;6.35;;
35909;SDS011;22004;49.120;-0.200;2023-08-24T09:25:03;12.65;;;7.07;;
35909;SDS011;22004;49.120;-0.200;2023-08-24T09:27:29;10.82;;;6.10;;
35909;SDS011;22004;49.120;-0.200;2023-08-24T09:29:56;10.98;;;5.90;;
35909;SDS011;22004;49.120;-0.200;2023-08-24T09:32:22;11.68;;;5.50;;
35909;SDS011;22004;49.120;-0.200;2023-08-24T09:34:54;11.80;;;6.18;;
35909;SDS011;22004;49.120;-0.200;2023-08-24T09:37:20;13.73;;;6.50;;
35909;SDS011;22004;49.120;-0.200;2023-08-24T09:39:46;19.30;;;7.47;;
35909;SDS011;22004;49.120;-0.200;2023-08-24T09:42:12;15.40;;;8.75;;
35909;SDS011;22004;49.120;-0.200;2023-08-24T09:44:43;10.70;;;6.18;;
35909;SDS011;22004;49.120;-0.200;2023-08-24T09:47:10;9.77;;;5.88;;
35909;SDS011;22004;49.120;-0.200;2023-08-24T09:49:36;12.93;;;5.88;;
35909;SDS011;22004;49.120;-0.200;2023-08-24T09:52:01;9.68;;;5.82;;
35909;SDS011;22004;49.120;-0.200;2023-08-24T09:54:31;10.00;;;5.68;;
35909;SDS011;22004;49.120;-0.200;2023-08-24T09:57:02;12.38;;;6.20;;
35909;SDS011;22004;49.120;-0.200;2023-08-24T09:59:28;14.10;;;6.65;;
35909;SDS011;22004;49.120;-0.200;2023-08-24T10:01:56;10.45;;;7.03;;
35909;SDS011;22004;49.120;-0.200;2023-08-24T10:04:25;13.77;;;7.95;;
35909;SDS011;22004;49.120;-0.200;2023-08-24T10:07:06;19.40;;;8.27;;
35909;SDS011;22004;49.120;-0.200;2023-08-24T10:09:44;22.73;;;8.88;;
35909;SDS011;22004;49.120;-0.200;2023-08-24T10:12:09;16.65;;;9.27;;
35909;SDS011;22004;49.120;-0.200;2023-08-24T10:14:47;21.63;;;11.43;;
35909;SDS011;22004;49.120;-0.200;2023-08-24T10:17:16;20.77;;;12.75;;
35909;SDS011;22004;49.120;-0.200;2023-08-24T10:19:42;21.42;;;11.95;;
35909;SDS011;22004;49.120;-0.200;2023-08-24T10:22:08;21.60;;;11.45;;
35909;SDS011;22004;49.120;-0.200;2023-08-24T10:24:35;22.10;;;11.10;;
35909;SDS011;22004;49.120;-0.200;2023-08-24T10:27:01;21.13;;;11.82;;
35909;SDS011;22004;49.120;-0.200;2023-08-24T10:29:28;18.77;;;10.98;;
35909;SDS011;22004;49.120;-0.200;2023-08-24T10:31:54;21.80;;;10.60;;
35909;SDS011;22004;49.120;-0.200;2023-08-24T10:34:21;15.95;;;9.30;;
35909;SDS011;22004;49.120;-0.200;2023-08-24T10:36:48;21.33;;;9.30;;
35909;SDS011;22004;49.120;-0.200;2023-08-24T10:39:16;17.58;;;8.23;;
35909;SDS011;22004;49.120;-0.200;2023-08-24T10:44:20;13.13;;;7.25;;
35909;SDS011;22004;49.120;-0.200;2023-08-24T10:49:31;14.25;;;6.60;;
35909;SDS011;22004;49.120;-0.200;2023-08-24T10:51:57;12.02;;;6.43;;
35909;SDS011;22004;49.120;-0.200;2023-08-24T10:54:32;13.30;;;6.40;;
35909;SDS011;22004;49.120;-0.200;2023-08-24T10:56:57;12.40;;;6.00;;
35909;SDS011;22004;49.120;-0.200;2023-08-24T10:59:29;11.18;;;6.47;;
35909;SDS011;22004;49.120;-0.200;2023-08-24T11:01:59;13.88;;;6.03;;
35909;SDS011;22004;49.120;-0.200;2023-08-24T11:04:26;10.90;;;6.22;;
35909;SDS011;22004;49.120;-0.200;2023-08-24T11:06:56;18.95;;;6.75;;
35909;SDS011;22004;49.120;-0.200;2023-08-24T11:09:24;12.30;;;7.30;;
35909;SDS011;22004;49.120;-0.200;2023-08-24T11:11:57;15.30;;;7.20;;
35909;SDS011;22004;49.120;-0.200;2023-08-24T11:14:24;15.38;;;8.57;;
35909;SDS011;22004;49.120;-0.200;2023-08-24T11:16:58;17.10;;;8.27;;
35909;SDS011;22004;49.120;-0.200;2023-08-24T11:19:49;20.25;;;7.90;;
35909;SDS011;22004;49.120;-0.200;2023-08-24T11:22:18;25.10;;;9.02;;
35909;SDS011;22004;49.120;-0.200;2023-08-24T11:24:44;22.45;;;9.25;;
35909;SDS011;22004;49.120;-0.200;2023-08-24T11:27:10;17.13;;;8.30;;
35909;SDS011;22004;49.120;-0.200;2023-08-24T11:29:35;14.80;;;8.57;;
35909;SDS011;22004;49.120;-0.200;2023-08-24T11:32:00;15.38;;;9.32;;
35909;SDS011;22004;49.120;-0.200;2023-08-24T11:34:27;11.73;;;7.93;;
35909;SDS011;22004;49.120;-0.200;2023-08-24T11:36:53;16.80;;;8.98;;
35909;SDS011;22004;49.120;-0.200;2023-08-24T11:39:19;14.25;;;9.02;;
35909;SDS011;22004;49.120;-0.200;2023-08-24T11:44:30;14.52;;;9.55;;
35909;SDS011;22004;49.120;-0.200;2023-08-24T11:47:11;13.65;;;9.55;;
35909;SDS011;22004;49.120;-0.200;2023-08-24T11:49:37;13.20;;;7.95;;
35909;SDS011;22004;49.120;-0.200;2023-08-24T11:52:02;18.70;;;8.27;;
35909;SDS011;22004;49.120;-0.200;2023-08-24T11:54:27;12.82;;;7.45;;
35909;SDS011;22004;49.120;-0.200;2023-08-24T11:56:53;12.60;;;7.40;;
35909;SDS011;22004;49.120;-0.200;2023-08-24T11:59:18;11.88;;;7.22;;
35909;SDS011;22004;49.120;-0.200;2023-08-24T12:01:44;12.45;;;6.55;;
35909;SDS011;22004;49.120;-0.200;2023-08-24T12:04:11;10.10;;;7.03;;
35909;SDS011;22004;49.120;-0.200;2023-08-24T12:06:37;12.73;;;7.35;;
35909;SDS011;22004;49.120;-0.200;2023-08-24T12:09:04;12.48;;;7.20;;
35909;SDS011;22004;49.120;-0.200;2023-08-24T12:11:34;11.38;;;6.47;;
35909;SDS011;22004;49.120;-0.200;2023-08-24T12:14:03;11.95;;;6.80;;
35909;SDS011;22004;49.120;-0.200;2023-08-24T12:16:31;11.18;;;6.68;;
35909;SDS011;22004;49.120;-0.200;2023-08-24T12:18:58;10.60;;;6.45;;
35909;SDS011;22004;49.120;-0.200;2023-08-24T12:21:27;12.75;;;6.40;;
35909;SDS011;22004;49.120;-0.200;2023-08-24T12:24:04;8.90;;;5.60;;
35909;SDS011;22004;49.120;-0.200;2023-08-24T12:26:31;21.83;;;7.70;;
35909;SDS011;22004;49.120;-0.200;2023-08-24T12:29:01;14.07;;;7.13;;
35909;SDS011;22004;49.120;-0.200;2023-08-24T12:31:31;11.18;;;8.23;;
35909;SDS011;22004;49.120;-0.200;2023-08-24T12:34:06;19.25;;;7.50;;
35909;SDS011;22004;49.120;-0.200;2023-08-24T12:36:36;18.40;;;6.93;;
35909;SDS011;22004;49.120;-0.200;2023-08-24T12:39:06;13.95;;;6.78;;
35909;SDS011;22004;49.120;-0.200;2023-08-24T12:41:33;9.90;;;6.55;;
35909;SDS011;22004;49.120;-0.200;2023-08-24T12:43:58;12.30;;;6.38;;
35909;SDS011;22004;49.120;-0.200;2023-08-24T12:46:24;12.35;;;5.97;;
35909;SDS011;22004;49.120;-0.200;2023-08-24T12:48:50;9.90;;;5.28;;
35909;SDS011;22004;49.120;-0.200;2023-08-24T12:51:16;7.70;;;4.32;;
35909;SDS011;22004;49.120;-0.200;2023-08-24T12:53:42;10.15;;;4.60;;
35909;SDS011;22004;49.120;-0.200;2023-08-24T12:56:08;6.57;;;3.83;;
35909;SDS011;22004;49.120;-0.200;2023-08-24T12:58:34;9.77;;;4.72;;
35909;SDS011;22004;49.120;-0.200;2023-08-24T13:00:59;4.07;;;3.45;;
35909;SDS011;22004;49.120;-0.200;2023-08-24T13:03:25;8.57;;;3.10;;
35909;SDS011;22004;49.120;-0.200;2023-08-24T13:05:50;8.57;;;3.65;;
35909;SDS011;22004;49.120;-0.200;2023-08-24T13:08:16;5.18;;;3.45;;
35909;SDS011;22004;49.120;-0.200;2023-08-24T13:10:41;6.95;;;3.67;;
35909;SDS011;22004;49.120;-0.200;2023-08-24T13:13:07;6.00;;;4.03;;
35909;SDS011;22004;49.120;-0.200;2023-08-24T13:15:32;11.00;;;4.50;;
35909;SDS011;22004;49.120;-0.200;2023-08-24T13:17:58;8.68;;;4.47;;
35909;SDS011;22004;49.120;-0.200;2023-08-24T13:20:23;9.45;;;4.85;;
35909;SDS011;22004;49.120;-0.200;2023-08-24T13:22:50;11.88;;;4.47;;
35909;SDS011;22004;49.120;-0.200;2023-08-24T13:25:17;7.13;;;5.05;;
35909;SDS011;22004;49.120;-0.200;2023-08-24T13:27:43;8.32;;;4.03;;
35909;SDS011;22004;49.120;-0.200;2023-08-24T13:30:08;14.27;;;4.90;;
35909;SDS011;22004;49.120;-0.200;2023-08-24T13:32:34;10.52;;;4.45;;
35909;SDS011;22004;49.120;-0.200;2023-08-24T13:35:00;12.20;;;4.20;;
35909;SDS011;22004;49.120;-0.200;2023-08-24T13:37:25;6.72;;;3.83;;
35909;SDS011;22004;49.120;-0.200;2023-08-24T13:39:51;12.02;;;4.32;;
35909;SDS011;22004;49.120;-0.200;2023-08-24T13:42:16;5.70;;;4.32;;
35909;SDS011;22004;49.120;-0.200;2023-08-24T13:44:42;11.45;;;4.43;;
35909;SDS011;22004;49.120;-0.200;2023-08-24T13:47:08;6.60;;;3.92;;
35909;SDS011;22004;49.120;-0.200;2023-08-24T13:49:33;9.98;;;4.50;;
35909;SDS011;22004;49.120;-0.200;2023-08-24T13:51:59;6.50;;;4.35;;
35909;SDS011;22004;49.120;-0.200;2023-08-24T13:54:24;8.82;;;4.90;;
35909;SDS011;22004;49.120;-0.200;2023-08-24T13:56:51;7.90;;;4.60;;
35909;SDS011;22004;49.120;-0.200;2023-08-24T13:59:18;6.70;;;4.60;;
35909;SDS011;22004;49.120;-0.200;2023-08-24T14:01:44;8.77;;;4.45;;
35909;SDS011;22004;49.120;-0.200;2023-08-24T14:04:10;12.10;;;4.70;;
35909;SDS011;22004;49.120;-0.200;2023-08-24T14:06:35;7.50;;;5.05;;
35909;SDS011;22004;49.120;-0.200;2023-08-24T14:09:02;7.32;;;5.00;;
35909;SDS011;22004;49.120;-0.200;2023-08-24T14:11:29;10.23;;;6.00;;
35909;SDS011;22004;49.120;-0.200;2023-08-24T14:13:54;14.45;;;5.38;;
35909;SDS011;22004;49.120;-0.200;2023-08-24T14:16:20;9.55;;;5.40;;
35909;SDS011;22004;49.120;-0.200;2023-08-24T14:18:45;7.43;;;5.13;;
35909;SDS011;22004;49.120;-0.200;2023-08-24T14:21:11;10.63;;;6.20;;
35909;SDS011;22004;49.120;-0.200;2023-08-24T14:23:37;9.85;;;5.63;;
35909;SDS011;22004;49.120;-0.200;2023-08-24T14:26:02;9.70;;;4.93;;
35909;SDS011;22004;49.120;-0.200;2023-08-24T14:28:46;10.68;;;5.65;;
35909;SDS011;22004;49.120;-0.200;2023-08-24T14:31:15;11.80;;;5.72;;
35909;SDS011;22004;49.120;-0.200;2023-08-24T14:33:41;12.45;;;5.85;;